sensor_id;sensor_type;location;lat;lon;timestamp;P1;durP1;ratioP1;P2;durP2;ratioP2
77597;SDS011;66756;42.774;23.354;2023-06-22T00:00:25;7.93;;;4.97;;
77597;SDS011;66756;42.774;23.354;2023-06-22T00:02:53;8.10;;;5.63;;
77597;SDS011;66756;42.774;23.354;2023-06-22T00:05:21;6.75;;;5.25;;
77597;SDS011;66756;42.774;23.354;2023-06-22T00:07:51;9.25;;;5.72;;
77597;SDS011;66756;42.774;23.354;2023-06-22T00:10:21;8.25;;;5.03;;
77597;SDS011;66756;42.774;23.354;2023-06-22T00:12:48;7.85;;;4.90;;
77597;SDS011;66756;42.774;23.354;2023-06-22T00:15:15;8.73;;;6.95;;
77597;SDS011;66756;42.774;23.354;2023-06-22T00:17:43;6.25;;;4.82;;
77597;SDS011;66756;42.774;23.354;2023-06-22T00:20:12;7.05;;;6.18;;
77597;SDS011;66756;42.774;23.354;2023-06-22T00:22:42;6.60;;;4.65;;
77597;SDS011;66756;42.774;23.354;2023-06-22T00:25:10;8.88;;;5.40;;
77597;SDS011;66756;42.774;23.354;2023-06-22T00:27:38;7.30;;;4.40;;
77597;SDS011;66756;42.774;23.354;2023-06-22T00:30:06;7.53;;;5.45;;
77597;SDS011;66756;42.774;23.354;2023-06-22T00:32:37;10.20;;;5.63;;
77597;SDS011;66756;42.774;23.354;2023-06-22T00:35:06;9.10;;;6.00;;
77597;SDS011;66756;42.774;23.354;2023-06-22T00:37:36;7.10;;;5.72;;
77597;SDS011;66756;42.774;23.354;2023-06-22T00:40:06;7.68;;;5.50;;
77597;SDS011;66756;42.774;23.354;2023-06-22T00:42:40;6.90;;;5.32;;
77597;SDS011;66756;42.774;23.354;2023-06-22T00:45:07;8.25;;;6.18;;
77597;SDS011;66756;42.774;23.354;2023-06-22T00:47:35;7.07;;;4.68;;
77597;SDS011;66756;42.774;23.354;2023-06-22T00:50:01;9.10;;;5.50;;
77597;SDS011;66756;42.774;23.354;2023-06-22T00:52:32;9.32;;;6.20;;
77597;SDS011;66756;42.774;23.354;2023-06-22T00:55:02;8.23;;;6.28;;
77597;SDS011;66756;42.774;23.354;2023-06-22T00:57:32;7.75;;;5.93;;
77597;SDS011;66756;42.774;23.354;2023-06-22T01:00:03;6.60;;;4.15;;
77597;SDS011;66756;42.774;23.354;2023-06-22T01:02:35;7.97;;;4.82;;
77597;SDS011;66756;42.774;23.354;2023-06-22T01:05:04;9.48;;;5.20;;
77597;SDS011;66756;42.774;23.354;2023-06-22T01:07:35;7.30;;;5.07;;
77597;SDS011;66756;42.774;23.354;2023-06-22T01:13:08;7.63;;;5.50;;
77597;SDS011;66756;42.774;23.354;2023-06-22T01:15:38;6.95;;;5.30;;
77597;SDS011;66756;42.774;23.354;2023-06-22T01:18:07;7.90;;;4.75;;
77597;SDS011;66756;42.774;23.354;2023-06-22T01:20:36;8.00;;;5.45;;
77597;SDS011;66756;42.774;23.354;2023-06-22T01:28:48;8.38;;;6.03;;
77597;SDS011;66756;42.774;23.354;2023-06-22T01:31:17;8.05;;;5.65;;
77597;SDS011;66756;42.774;23.354;2023-06-22T01:33:45;8.57;;;5.55;;
77597;SDS011;66756;42.774;23.354;2023-06-22T01:36:16;9.20;;;7.35;;
77597;SDS011;66756;42.774;23.354;2023-06-22T01:38:45;8.60;;;6.60;;
77597;SDS011;66756;42.774;23.354;2023-06-22T01:41:21;8.68;;;5.85;;
77597;SDS011;66756;42.774;23.354;2023-06-22T01:43:52;10.32;;;5.80;;
77597;SDS011;66756;42.774;23.354;2023-06-22T01:46:20;9.77;;;4.50;;
77597;SDS011;66756;42.774;23.354;2023-06-22T01:48:47;5.93;;;4.50;;
77597;SDS011;66756;42.774;23.354;2023-06-22T01:51:14;7.38;;;5.47;;
77597;SDS011;66756;42.774;23.354;2023-06-22T01:53:43;9.20;;;5.00;;
77597;SDS011;66756;42.774;23.354;2023-06-22T01:56:12;10.35;;;5.03;;
77597;SDS011;66756;42.774;23.354;2023-06-22T01:58:43;8.30;;;4.55;;
77597;SDS011;66756;42.774;23.354;2023-06-22T02:01:13;7.93;;;4.15;;
77597;SDS011;66756;42.774;23.354;2023-06-22T02:03:57;9.27;;;4.95;;
77597;SDS011;66756;42.774;23.354;2023-06-22T02:06:37;14.20;;;5.80;;
77597;SDS011;66756;42.774;23.354;2023-06-22T02:09:12;9.82;;;5.03;;
77597;SDS011;66756;42.774;23.354;2023-06-22T02:14:10;10.40;;;5.35;;
77597;SDS011;66756;42.774;23.354;2023-06-22T02:16:41;9.40;;;6.18;;
77597;SDS011;66756;42.774;23.354;2023-06-22T02:19:15;9.73;;;5.90;;
77597;SDS011;66756;42.774;23.354;2023-06-22T02:21:43;11.52;;;5.00;;
77597;SDS011;66756;42.774;23.354;2023-06-22T02:24:10;9.93;;;4.75;;
77597;SDS011;66756;42.774;23.354;2023-06-22T02:26:41;8.45;;;4.20;;
77597;SDS011;66756;42.774;23.354;2023-06-22T02:29:09;8.95;;;4.63;;
77597;SDS011;66756;42.774;23.354;2023-06-22T02:31:37;6.20;;;4.07;;
77597;SDS011;66756;42.774;23.354;2023-06-22T02:34:04;8.38;;;4.47;;
77597;SDS011;66756;42.774;23.354;2023-06-22T02:36:30;8.15;;;4.70;;
77597;SDS011;66756;42.774;23.354;2023-06-22T02:38:58;8.73;;;4.15;;
77597;SDS011;66756;42.774;23.354;2023-06-22T02:41:26;7.47;;;4.30;;
77597;SDS011;66756;42.774;23.354;2023-06-22T02:43:54;8.45;;;5.22;;
77597;SDS011;66756;42.774;23.354;2023-06-22T02:46:22;8.35;;;5.13;;
77597;SDS011;66756;42.774;23.354;2023-06-22T02:48:49;10.65;;;4.68;;
77597;SDS011;66756;42.774;23.354;2023-06-22T02:51:15;8.40;;;4.97;;
77597;SDS011;66756;42.774;23.354;2023-06-22T02:53:46;10.02;;;5.15;;
77597;SDS011;66756;42.774;23.354;2023-06-22T02:56:13;7.60;;;4.78;;
77597;SDS011;66756;42.774;23.354;2023-06-22T02:58:45;8.80;;;5.20;;
77597;SDS011;66756;42.774;23.354;2023-06-22T03:01:11;10.25;;;5.65;;
77597;SDS011;66756;42.774;23.354;2023-06-22T03:03:39;10.25;;;5.25;;
77597;SDS011;66756;42.774;23.354;2023-06-22T03:06:05;8.63;;;5.38;;
77597;SDS011;66756;42.774;23.354;2023-06-22T03:08:32;12.57;;;5.32;;
77597;SDS011;66756;42.774;23.354;2023-06-22T03:11:03;9.15;;;5.15;;
77597;SDS011;66756;42.774;23.354;2023-06-22T03:13:36;9.55;;;5.50;;
77597;SDS011;66756;42.774;23.354;2023-06-22T03:16:03;8.75;;;5.45;;
77597;SDS011;66756;42.774;23.354;2023-06-22T03:18:32;10.25;;;5.25;;
77597;SDS011;66756;42.774;23.354;2023-06-22T03:21:02;8.43;;;5.57;;
77597;SDS011;66756;42.774;23.354;2023-06-22T03:23:28;10.65;;;5.65;;
77597;SDS011;66756;42.774;23.354;2023-06-22T03:25:56;8.57;;;5.75;;
77597;SDS011;66756;42.774;23.354;2023-06-22T03:28:23;8.07;;;5.82;;
77597;SDS011;66756;42.774;23.354;2023-06-22T03:30:50;11.70;;;6.93;;
77597;SDS011;66756;42.774;23.354;2023-06-22T03:33:16;10.88;;;6.55;;
77597;SDS011;66756;42.774;23.354;2023-06-22T03:35:42;10.20;;;6.05;;
77597;SDS011;66756;42.774;23.354;2023-06-22T03:38:10;12.63;;;7.10;;
77597;SDS011;66756;42.774;23.354;2023-06-22T03:40:37;10.63;;;6.78;;
77597;SDS011;66756;42.774;23.354;2023-06-22T03:43:03;12.27;;;6.65;;
77597;SDS011;66756;42.774;23.354;2023-06-22T03:45:31;8.68;;;6.18;;
77597;SDS011;66756;42.774;23.354;2023-06-22T03:48:00;11.38;;;6.70;;
77597;SDS011;66756;42.774;23.354;2023-06-22T03:50:27;12.43;;;6.95;;
77597;SDS011;66756;42.774;23.354;2023-06-22T03:53:01;11.88;;;7.28;;
77597;SDS011;66756;42.774;23.354;2023-06-22T03:55:27;13.63;;;7.22;;
77597;SDS011;66756;42.774;23.354;2023-06-22T03:57:55;9.52;;;7.10;;
77597;SDS011;66756;42.774;23.354;2023-06-22T04:00:25;10.80;;;6.85;;
77597;SDS011;66756;42.774;23.354;2023-06-22T04:02:52;10.23;;;7.13;;
77597;SDS011;66756;42.774;23.354;2023-06-22T04:05:19;10.32;;;6.97;;
77597;SDS011;66756;42.774;23.354;2023-06-22T04:07:46;10.18;;;7.13;;
77597;SDS011;66756;42.774;23.354;2023-06-22T04:10:12;10.90;;;6.97;;
77597;SDS011;66756;42.774;23.354;2023-06-22T04:12:42;10.65;;;6.97;;
77597;SDS011;66756;42.774;23.354;2023-06-22T04:15:09;11.13;;;7.30;;
77597;SDS011;66756;42.774;23.354;2023-06-22T04:17:38;9.30;;;7.07;;
77597;SDS011;66756;42.774;23.354;2023-06-22T04:20:06;10.15;;;7.22;;
77597;SDS011;66756;42.774;23.354;2023-06-22T04:22:36;11.95;;;6.78;;
77597;SDS011;66756;42.774;23.354;2023-06-22T04:25:05;11.88;;;7.22;;
77597;SDS011;66756;42.774;23.354;2023-06-22T04:27:32;12.07;;;7.10;;
77597;SDS011;66756;42.774;23.354;2023-06-22T04:30:06;10.55;;;7.60;;
77597;SDS011;66756;42.774;23.354;2023-06-22T04:32:35;10.65;;;7.47;;
77597;SDS011;66756;42.774;23.354;2023-06-22T04:35:02;10.25;;;7.40;;
77597;SDS011;66756;42.774;23.354;2023-06-22T04:37:31;11.35;;;7.72;;
77597;SDS011;66756;42.774;23.354;2023-06-22T04:39:57;9.68;;;8.07;;
77597;SDS011;66756;42.774;23.354;2023-06-22T04:42:25;11.98;;;7.28;;
77597;SDS011;66756;42.774;23.354;2023-06-22T04:44:52;10.18;;;7.90;;
77597;SDS011;66756;42.774;23.354;2023-06-22T04:47:18;11.77;;;8.20;;
77597;SDS011;66756;42.774;23.354;2023-06-22T04:49:44;11.38;;;8.25;;
77597;SDS011;66756;42.774;23.354;2023-06-22T04:52:11;9.43;;;8.23;;
77597;SDS011;66756;42.774;23.354;2023-06-22T04:54:39;8.88;;;7.88;;
77597;SDS011;66756;42.774;23.354;2023-06-22T04:57:13;9.48;;;7.20;;
77597;SDS011;66756;42.774;23.354;2023-06-22T04:59:41;9.75;;;7.40;;
77597;SDS011;66756;42.774;23.354;2023-06-22T05:02:07;11.68;;;7.13;;
77597;SDS011;66756;42.774;23.354;2023-06-22T05:04:34;10.73;;;8.20;;
77597;SDS011;66756;42.774;23.354;2023-06-22T05:07:03;10.68;;;6.88;;
77597;SDS011;66756;42.774;23.354;2023-06-22T05:09:30;8.85;;;7.75;;
77597;SDS011;66756;42.774;23.354;2023-06-22T05:11:58;9.13;;;7.68;;
77597;SDS011;66756;42.774;23.354;2023-06-22T05:14:28;8.77;;;7.18;;
77597;SDS011;66756;42.774;23.354;2023-06-22T05:16:55;9.00;;;7.07;;
77597;SDS011;66756;42.774;23.354;2023-06-22T05:19:24;12.25;;;8.40;;
77597;SDS011;66756;42.774;23.354;2023-06-22T05:21:57;8.57;;;6.82;;
77597;SDS011;66756;42.774;23.354;2023-06-22T05:24:24;8.23;;;6.93;;
77597;SDS011;66756;42.774;23.354;2023-06-22T05:26:55;8.38;;;7.50;;
77597;SDS011;66756;42.774;23.354;2023-06-22T05:29:21;8.30;;;7.25;;
77597;SDS011;66756;42.774;23.354;2023-06-22T05:31:49;7.82;;;6.72;;
77597;SDS011;66756;42.774;23.354;2023-06-22T05:34:17;8.60;;;7.18;;
77597;SDS011;66756;42.774;23.354;2023-06-22T05:36:47;9.35;;;7.15;;
77597;SDS011;66756;42.774;23.354;2023-06-22T05:39:14;8.85;;;7.03;;
77597;SDS011;66756;42.774;23.354;2023-06-22T05:41:46;9.43;;;6.43;;
77597;SDS011;66756;42.774;23.354;2023-06-22T05:44:16;8.95;;;7.00;;
77597;SDS011;66756;42.774;23.354;2023-06-22T05:46:43;7.28;;;6.10;;
77597;SDS011;66756;42.774;23.354;2023-06-22T05:49:11;8.57;;;6.93;;
77597;SDS011;66756;42.774;23.354;2023-06-22T05:51:39;6.78;;;5.70;;
77597;SDS011;66756;42.774;23.354;2023-06-22T05:54:07;6.95;;;5.85;;
77597;SDS011;66756;42.774;23.354;2023-06-22T05:56:41;9.73;;;6.50;;
77597;SDS011;66756;42.774;23.354;2023-06-22T05:59:10;7.05;;;6.03;;
77597;SDS011;66756;42.774;23.354;2023-06-22T06:01:42;8.13;;;6.90;;
77597;SDS011;66756;42.774;23.354;2023-06-22T06:04:09;7.95;;;6.43;;
77597;SDS011;66756;42.774;23.354;2023-06-22T06:06:37;7.13;;;5.75;;
77597;SDS011;66756;42.774;23.354;2023-06-22T06:09:04;8.07;;;5.82;;
77597;SDS011;66756;42.774;23.354;2023-06-22T06:11:34;7.55;;;6.25;;
77597;SDS011;66756;42.774;23.354;2023-06-22T06:14:00;10.07;;;7.10;;
77597;SDS011;66756;42.774;23.354;2023-06-22T06:16:28;7.60;;;6.85;;
77597;SDS011;66756;42.774;23.354;2023-06-22T06:18:55;7.85;;;6.57;;
77597;SDS011;66756;42.774;23.354;2023-06-22T06:21:37;9.00;;;6.88;;
77597;SDS011;66756;42.774;23.354;2023-06-22T06:24:03;7.28;;;5.93;;
77597;SDS011;66756;42.774;23.354;2023-06-22T06:26:31;8.05;;;6.90;;
77597;SDS011;66756;42.774;23.354;2023-06-22T06:29:01;7.90;;;7.13;;
77597;SDS011;66756;42.774;23.354;2023-06-22T06:31:31;10.60;;;7.50;;
77597;SDS011;66756;42.774;23.354;2023-06-22T06:34:00;8.77;;;7.88;;
77597;SDS011;66756;42.774;23.354;2023-06-22T06:36:28;9.55;;;7.10;;
77597;SDS011;66756;42.774;23.354;2023-06-22T06:38:57;8.35;;;7.47;;
77597;SDS011;66756;42.774;23.354;2023-06-22T06:41:23;9.30;;;7.53;;
77597;SDS011;66756;42.774;23.354;2023-06-22T06:43:50;11.18;;;7.65;;
77597;SDS011;66756;42.774;23.354;2023-06-22T06:46:18;8.57;;;7.30;;
77597;SDS011;66756;42.774;23.354;2023-06-22T06:48:46;9.48;;;7.35;;
77597;SDS011;66756;42.774;23.354;2023-06-22T06:51:12;9.30;;;7.43;;
77597;SDS011;66756;42.774;23.354;2023-06-22T06:53:39;9.68;;;7.53;;
77597;SDS011;66756;42.774;23.354;2023-06-22T06:56:07;10.13;;;8.15;;
77597;SDS011;66756;42.774;23.354;2023-06-22T06:58:35;9.55;;;7.88;;
77597;SDS011;66756;42.774;23.354;2023-06-22T07:01:02;10.75;;;7.55;;
77597;SDS011;66756;42.774;23.354;2023-06-22T07:03:29;9.48;;;8.57;;
77597;SDS011;66756;42.774;23.354;2023-06-22T07:05:59;10.40;;;8.23;;
77597;SDS011;66756;42.774;23.354;2023-06-22T07:08:26;10.95;;;8.25;;
77597;SDS011;66756;42.774;23.354;2023-06-22T07:10:52;12.93;;;9.07;;
77597;SDS011;66756;42.774;23.354;2023-06-22T07:13:19;9.80;;;7.72;;
77597;SDS011;66756;42.774;23.354;2023-06-22T07:15:45;11.10;;;8.13;;
77597;SDS011;66756;42.774;23.354;2023-06-22T07:18:11;11.25;;;9.73;;
77597;SDS011;66756;42.774;23.354;2023-06-22T07:20:38;9.68;;;8.18;;
77597;SDS011;66756;42.774;23.354;2023-06-22T07:23:06;10.00;;;7.85;;
77597;SDS011;66756;42.774;23.354;2023-06-22T07:25:33;10.05;;;8.20;;
77597;SDS011;66756;42.774;23.354;2023-06-22T07:30:28;10.52;;;8.07;;
77597;SDS011;66756;42.774;23.354;2023-06-22T07:32:57;9.95;;;8.15;;
77597;SDS011;66756;42.774;23.354;2023-06-22T07:35:31;9.57;;;8.00;;
77597;SDS011;66756;42.774;23.354;2023-06-22T07:38:02;9.32;;;8.27;;
77597;SDS011;66756;42.774;23.354;2023-06-22T07:40:33;10.63;;;8.48;;
77597;SDS011;66756;42.774;23.354;2023-06-22T07:43:02;9.52;;;7.80;;
77597;SDS011;66756;42.774;23.354;2023-06-22T07:45:33;9.45;;;7.88;;
77597;SDS011;66756;42.774;23.354;2023-06-22T07:48:06;9.48;;;8.48;;
77597;SDS011;66756;42.774;23.354;2023-06-22T07:50:35;9.18;;;7.82;;
77597;SDS011;66756;42.774;23.354;2023-06-22T07:53:03;11.18;;;7.75;;
77597;SDS011;66756;42.774;23.354;2023-06-22T07:55:31;9.48;;;8.48;;
77597;SDS011;66756;42.774;23.354;2023-06-22T07:58:00;9.68;;;8.32;;
77597;SDS011;66756;42.774;23.354;2023-06-22T08:00:27;10.43;;;7.88;;
77597;SDS011;66756;42.774;23.354;2023-06-22T08:02:58;10.13;;;7.50;;
77597;SDS011;66756;42.774;23.354;2023-06-22T08:05:29;8.85;;;7.55;;
77597;SDS011;66756;42.774;23.354;2023-06-22T08:07:57;13.23;;;8.02;;
77597;SDS011;66756;42.774;23.354;2023-06-22T08:10:26;9.55;;;8.18;;
77597;SDS011;66756;42.774;23.354;2023-06-22T08:12:54;9.48;;;7.97;;
77597;SDS011;66756;42.774;23.354;2023-06-22T08:15:20;9.55;;;8.48;;
77597;SDS011;66756;42.774;23.354;2023-06-22T08:17:47;10.48;;;8.18;;
77597;SDS011;66756;42.774;23.354;2023-06-22T08:20:15;9.02;;;7.90;;
77597;SDS011;66756;42.774;23.354;2023-06-22T08:22:45;12.05;;;10.20;;
77597;SDS011;66756;42.774;23.354;2023-06-22T08:25:13;9.50;;;8.45;;
77597;SDS011;66756;42.774;23.354;2023-06-22T08:27:40;9.48;;;8.32;;
77597;SDS011;66756;42.774;23.354;2023-06-22T08:30:11;10.73;;;8.85;;
77597;SDS011;66756;42.774;23.354;2023-06-22T08:32:40;9.52;;;8.60;;
77597;SDS011;66756;42.774;23.354;2023-06-22T08:35:06;9.43;;;8.48;;
77597;SDS011;66756;42.774;23.354;2023-06-22T08:37:35;9.95;;;8.95;;
77597;SDS011;66756;42.774;23.354;2023-06-22T08:40:07;10.25;;;8.07;;
77597;SDS011;66756;42.774;23.354;2023-06-22T08:42:35;10.48;;;8.23;;
77597;SDS011;66756;42.774;23.354;2023-06-22T08:45:06;9.98;;;7.95;;
77597;SDS011;66756;42.774;23.354;2023-06-22T08:47:35;8.68;;;7.78;;
77597;SDS011;66756;42.774;23.354;2023-06-22T08:50:04;9.80;;;7.88;;
77597;SDS011;66756;42.774;23.354;2023-06-22T08:52:34;9.75;;;8.68;;
77597;SDS011;66756;42.774;23.354;2023-06-22T08:55:03;9.27;;;7.50;;
77597;SDS011;66756;42.774;23.354;2023-06-22T08:57:31;10.27;;;7.75;;
77597;SDS011;66756;42.774;23.354;2023-06-22T09:00:05;9.60;;;8.13;;
77597;SDS011;66756;42.774;23.354;2023-06-22T09:02:43;8.98;;;8.07;;
77597;SDS011;66756;42.774;23.354;2023-06-22T09:05:10;9.48;;;7.78;;
77597;SDS011;66756;42.774;23.354;2023-06-22T09:07:37;9.48;;;8.15;;
77597;SDS011;66756;42.774;23.354;2023-06-22T09:10:06;8.82;;;7.32;;
77597;SDS011;66756;42.774;23.354;2023-06-22T09:12:33;9.80;;;7.30;;
77597;SDS011;66756;42.774;23.354;2023-06-22T09:15:05;10.40;;;8.80;;
77597;SDS011;66756;42.774;23.354;2023-06-22T09:17:33;9.02;;;8.10;;
77597;SDS011;66756;42.774;23.354;2023-06-22T09:20:02;10.43;;;9.35;;
77597;SDS011;66756;42.774;23.354;2023-06-22T09:22:32;12.13;;;7.30;;
77597;SDS011;66756;42.774;23.354;2023-06-22T09:25:05;11.70;;;8.27;;
77597;SDS011;66756;42.774;23.354;2023-06-22T09:27:35;8.85;;;7.10;;
77597;SDS011;66756;42.774;23.354;2023-06-22T09:30:01;8.88;;;8.00;;
77597;SDS011;66756;42.774;23.354;2023-06-22T09:32:28;9.10;;;7.55;;
77597;SDS011;66756;42.774;23.354;2023-06-22T09:35:02;9.15;;;7.97;;
77597;SDS011;66756;42.774;23.354;2023-06-22T09:37:30;9.65;;;7.70;;
77597;SDS011;66756;42.774;23.354;2023-06-22T09:39:56;8.90;;;8.00;;
77597;SDS011;66756;42.774;23.354;2023-06-22T09:42:24;8.70;;;7.88;;
77597;SDS011;66756;42.774;23.354;2023-06-22T09:44:54;9.02;;;7.70;;
77597;SDS011;66756;42.774;23.354;2023-06-22T09:47:24;8.45;;;7.65;;
77597;SDS011;66756;42.774;23.354;2023-06-22T09:49:54;12.68;;;8.30;;
77597;SDS011;66756;42.774;23.354;2023-06-22T09:52:26;8.43;;;7.55;;
77597;SDS011;66756;42.774;23.354;2023-06-22T09:54:54;8.60;;;7.70;;
77597;SDS011;66756;42.774;23.354;2023-06-22T09:57:22;9.90;;;7.03;;
77597;SDS011;66756;42.774;23.354;2023-06-22T09:59:50;9.20;;;7.30;;
77597;SDS011;66756;42.774;23.354;2023-06-22T10:02:20;8.27;;;7.40;;
77597;SDS011;66756;42.774;23.354;2023-06-22T10:04:54;8.50;;;7.50;;
77597;SDS011;66756;42.774;23.354;2023-06-22T10:09:55;10.80;;;7.78;;
77597;SDS011;66756;42.774;23.354;2023-06-22T10:12:21;9.95;;;8.27;;
77597;SDS011;66756;42.774;23.354;2023-06-22T10:14:49;8.43;;;7.45;;
77597;SDS011;66756;42.774;23.354;2023-06-22T10:17:16;9.05;;;8.10;;
77597;SDS011;66756;42.774;23.354;2023-06-22T10:19:42;8.07;;;7.28;;
77597;SDS011;66756;42.774;23.354;2023-06-22T10:22:08;8.90;;;8.00;;
77597;SDS011;66756;42.774;23.354;2023-06-22T10:24:34;8.48;;;7.57;;
77597;SDS011;66756;42.774;23.354;2023-06-22T10:27:04;8.40;;;7.60;;
77597;SDS011;66756;42.774;23.354;2023-06-22T10:29:30;8.65;;;7.65;;
77597;SDS011;66756;42.774;23.354;2023-06-22T10:31:59;8.27;;;7.47;;
77597;SDS011;66756;42.774;23.354;2023-06-22T10:34:25;9.07;;;7.78;;
77597;SDS011;66756;42.774;23.354;2023-06-22T10:36:51;8.60;;;7.80;;
77597;SDS011;66756;42.774;23.354;2023-06-22T10:39:18;9.55;;;8.55;;
77597;SDS011;66756;42.774;23.354;2023-06-22T10:41:44;9.25;;;8.43;;
77597;SDS011;66756;42.774;23.354;2023-06-22T10:44:11;8.00;;;7.15;;
77597;SDS011;66756;42.774;23.354;2023-06-22T10:46:38;9.65;;;8.48;;
77597;SDS011;66756;42.774;23.354;2023-06-22T10:49:05;8.98;;;8.05;;
77597;SDS011;66756;42.774;23.354;2023-06-22T10:51:32;8.40;;;7.47;;
77597;SDS011;66756;42.774;23.354;2023-06-22T10:53:58;8.38;;;7.53;;
77597;SDS011;66756;42.774;23.354;2023-06-22T10:56:24;8.10;;;7.38;;
77597;SDS011;66756;42.774;23.354;2023-06-22T10:58:53;7.78;;;7.05;;
77597;SDS011;66756;42.774;23.354;2023-06-22T11:01:22;9.15;;;8.25;;
77597;SDS011;66756;42.774;23.354;2023-06-22T11:03:48;8.48;;;7.45;;
77597;SDS011;66756;42.774;23.354;2023-06-22T11:06:14;8.05;;;7.25;;
77597;SDS011;66756;42.774;23.354;2023-06-22T11:08:44;8.60;;;6.75;;
77597;SDS011;66756;42.774;23.354;2023-06-22T11:11:12;9.25;;;7.10;;
77597;SDS011;66756;42.774;23.354;2023-06-22T11:13:46;7.82;;;6.78;;
77597;SDS011;66756;42.774;23.354;2023-06-22T11:16:14;8.38;;;7.57;;
77597;SDS011;66756;42.774;23.354;2023-06-22T11:18:41;8.23;;;6.82;;
77597;SDS011;66756;42.774;23.354;2023-06-22T11:21:08;7.40;;;6.70;;
77597;SDS011;66756;42.774;23.354;2023-06-22T11:23:36;8.10;;;7.30;;
77597;SDS011;66756;42.774;23.354;2023-06-22T11:26:02;7.63;;;6.93;;
77597;SDS011;66756;42.774;23.354;2023-06-22T11:28:30;8.30;;;6.60;;
77597;SDS011;66756;42.774;23.354;2023-06-22T11:30:57;7.82;;;7.10;;
77597;SDS011;66756;42.774;23.354;2023-06-22T11:33:23;6.88;;;6.28;;
77597;SDS011;66756;42.774;23.354;2023-06-22T11:35:49;7.97;;;7.25;;
77597;SDS011;66756;42.774;23.354;2023-06-22T11:38:18;6.63;;;5.93;;
77597;SDS011;66756;42.774;23.354;2023-06-22T11:40:44;7.63;;;6.72;;
77597;SDS011;66756;42.774;23.354;2023-06-22T11:43:11;7.88;;;7.07;;
77597;SDS011;66756;42.774;23.354;2023-06-22T11:45:41;7.13;;;6.28;;
77597;SDS011;66756;42.774;23.354;2023-06-22T11:48:08;7.57;;;6.75;;
77597;SDS011;66756;42.774;23.354;2023-06-22T11:50:34;7.90;;;7.03;;
77597;SDS011;66756;42.774;23.354;2023-06-22T11:53:03;7.10;;;6.40;;
77597;SDS011;66756;42.774;23.354;2023-06-22T11:55:35;7.57;;;6.78;;
77597;SDS011;66756;42.774;23.354;2023-06-22T11:58:05;7.47;;;6.68;;
77597;SDS011;66756;42.774;23.354;2023-06-22T12:00:36;8.32;;;7.38;;
77597;SDS011;66756;42.774;23.354;2023-06-22T12:03:04;9.60;;;6.97;;
77597;SDS011;66756;42.774;23.354;2023-06-22T12:05:32;10.35;;;7.35;;
77597;SDS011;66756;42.774;23.354;2023-06-22T12:07:59;7.80;;;6.53;;
77597;SDS011;66756;42.774;23.354;2023-06-22T12:10:25;7.90;;;7.10;;
77597;SDS011;66756;42.774;23.354;2023-06-22T12:12:55;8.70;;;7.53;;
77597;SDS011;66756;42.774;23.354;2023-06-22T12:15:26;9.75;;;7.40;;
77597;SDS011;66756;42.774;23.354;2023-06-22T12:17:55;8.00;;;7.20;;
77597;SDS011;66756;42.774;23.354;2023-06-22T12:20:21;8.93;;;8.02;;
77597;SDS011;66756;42.774;23.354;2023-06-22T12:22:50;7.85;;;7.05;;
77597;SDS011;66756;42.774;23.354;2023-06-22T12:25:17;10.20;;;7.30;;
77597;SDS011;66756;42.774;23.354;2023-06-22T12:27:44;8.50;;;7.60;;
77597;SDS011;66756;42.774;23.354;2023-06-22T12:30:12;10.23;;;7.20;;
77597;SDS011;66756;42.774;23.354;2023-06-22T12:32:42;9.98;;;5.88;;
77597;SDS011;66756;42.774;23.354;2023-06-22T12:35:14;7.68;;;5.43;;
77597;SDS011;66756;42.774;23.354;2023-06-22T12:37:41;8.07;;;4.60;;
77597;SDS011;66756;42.774;23.354;2023-06-22T12:40:10;5.75;;;4.03;;
77597;SDS011;66756;42.774;23.354;2023-06-22T12:42:39;7.15;;;3.58;;
77597;SDS011;66756;42.774;23.354;2023-06-22T12:45:11;7.68;;;3.97;;
77597;SDS011;66756;42.774;23.354;2023-06-22T12:47:38;6.22;;;4.13;;
77597;SDS011;66756;42.774;23.354;2023-06-22T12:50:06;6.47;;;3.95;;
77597;SDS011;66756;42.774;23.354;2023-06-22T12:52:36;6.15;;;3.85;;
77597;SDS011;66756;42.774;23.354;2023-06-22T12:55:09;6.47;;;5.10;;
77597;SDS011;66756;42.774;23.354;2023-06-22T12:57:41;7.22;;;4.50;;
77597;SDS011;66756;42.774;23.354;2023-06-22T13:00:12;5.78;;;3.05;;
77597;SDS011;66756;42.774;23.354;2023-06-22T13:02:43;5.18;;;3.55;;
77597;SDS011;66756;42.774;23.354;2023-06-22T13:05:09;5.90;;;4.03;;
77597;SDS011;66756;42.774;23.354;2023-06-22T13:07:37;6.60;;;3.80;;
77597;SDS011;66756;42.774;23.354;2023-06-22T13:10:11;9.30;;;3.88;;
77597;SDS011;66756;42.774;23.354;2023-06-22T13:12:38;6.75;;;3.33;;
77597;SDS011;66756;42.774;23.354;2023-06-22T13:15:10;6.53;;;3.90;;
77597;SDS011;66756;42.774;23.354;2023-06-22T13:17:39;4.70;;;3.28;;
77597;SDS011;66756;42.774;23.354;2023-06-22T13:20:06;7.50;;;3.55;;
77597;SDS011;66756;42.774;23.354;2023-06-22T13:22:35;4.97;;;2.95;;
77597;SDS011;66756;42.774;23.354;2023-06-22T13:25:08;6.47;;;3.75;;
77597;SDS011;66756;42.774;23.354;2023-06-22T13:27:41;6.82;;;2.92;;
77597;SDS011;66756;42.774;23.354;2023-06-22T13:30:17;4.97;;;3.35;;
77597;SDS011;66756;42.774;23.354;2023-06-22T13:32:44;6.35;;;3.35;;
77597;SDS011;66756;42.774;23.354;2023-06-22T13:35:17;6.00;;;2.92;;
77597;SDS011;66756;42.774;23.354;2023-06-22T13:37:49;5.18;;;3.13;;
77597;SDS011;66756;42.774;23.354;2023-06-22T13:40:16;4.28;;;3.05;;
77597;SDS011;66756;42.774;23.354;2023-06-22T13:42:42;5.00;;;3.38;;
77597;SDS011;66756;42.774;23.354;2023-06-22T13:45:09;5.10;;;3.53;;
77597;SDS011;66756;42.774;23.354;2023-06-22T13:47:37;7.28;;;4.07;;
77597;SDS011;66756;42.774;23.354;2023-06-22T13:50:04;7.32;;;4.85;;
77597;SDS011;66756;42.774;23.354;2023-06-22T13:52:30;6.88;;;3.63;;
77597;SDS011;66756;42.774;23.354;2023-06-22T13:54:56;8.80;;;4.93;;
77597;SDS011;66756;42.774;23.354;2023-06-22T13:57:26;6.10;;;4.15;;
77597;SDS011;66756;42.774;23.354;2023-06-22T13:59:55;6.95;;;4.03;;
77597;SDS011;66756;42.774;23.354;2023-06-22T14:02:21;5.63;;;4.22;;
77597;SDS011;66756;42.774;23.354;2023-06-22T14:04:48;6.07;;;4.25;;
77597;SDS011;66756;42.774;23.354;2023-06-22T14:07:17;5.57;;;4.22;;
77597;SDS011;66756;42.774;23.354;2023-06-22T14:12:12;7.35;;;3.83;;
77597;SDS011;66756;42.774;23.354;2023-06-22T14:14:39;6.40;;;4.25;;
77597;SDS011;66756;42.774;23.354;2023-06-22T14:17:05;7.07;;;3.72;;
77597;SDS011;66756;42.774;23.354;2023-06-22T14:19:32;6.82;;;4.38;;
77597;SDS011;66756;42.774;23.354;2023-06-22T14:21:58;5.57;;;3.97;;
77597;SDS011;66756;42.774;23.354;2023-06-22T14:24:24;7.07;;;4.97;;
77597;SDS011;66756;42.774;23.354;2023-06-22T14:26:51;6.28;;;4.50;;
77597;SDS011;66756;42.774;23.354;2023-06-22T14:29:20;8.10;;;5.20;;
77597;SDS011;66756;42.774;23.354;2023-06-22T14:31:47;5.65;;;4.28;;
77597;SDS011;66756;42.774;23.354;2023-06-22T14:34:14;5.57;;;4.60;;
77597;SDS011;66756;42.774;23.354;2023-06-22T14:36:41;7.20;;;4.38;;
77597;SDS011;66756;42.774;23.354;2023-06-22T14:39:08;7.57;;;4.85;;
77597;SDS011;66756;42.774;23.354;2023-06-22T14:41:34;7.22;;;5.00;;
77597;SDS011;66756;42.774;23.354;2023-06-22T14:44:01;6.80;;;4.93;;
77597;SDS011;66756;42.774;23.354;2023-06-22T14:46:29;7.55;;;5.18;;
77597;SDS011;66756;42.774;23.354;2023-06-22T14:48:57;9.77;;;5.45;;
77597;SDS011;66756;42.774;23.354;2023-06-22T14:51:23;6.70;;;5.38;;
77597;SDS011;66756;42.774;23.354;2023-06-22T14:53:50;6.90;;;4.68;;
77597;SDS011;66756;42.774;23.354;2023-06-22T14:56:16;9.27;;;6.10;;